Time;durP1;ratioP1;P1;durP2;ratioP2;P2;SDS_P1;SDS_P2;PMS_P1;PMS_P2;Temp;Humidity;BMP_temperature;BMP_pressure;BME280_temperature;BME280_humidity;BME280_pressure;Samples;Min_cycle;Max_cycle;Signal;HPM_P1;HPM_P2
2023/04/26 00:01:35;;;;;;;8.67;1.53;;;;;;;2.37;100.00;101192.69;7393531;19;20447;-37
2023/04/26 00:04:07;;;;;;;8.93;1.43;;;;;;;2.43;100.00;101199.97;7393336;19;20448;-37
2023/04/26 00:06:38;;;;;;;8.77;1.80;;;;;;;2.51;100.00;101200.59;7391623;19;20510;-37
2023/04/26 00:09:08;;;;;;;11.00;1.73;;;;;;;2.54;100.00;101194.09;7393573;19;20379;-38
2023/04/26 00:11:37;;;;;;;7.90;1.30;;;;;;;2.50;100.00;101202.25;7393472;19;20444;-38
2023/04/26 00:14:10;;;;;;;7.77;1.63;;;;;;;2.48;100.00;101206.34;7393523;19;20463;-38
2023/04/26 00:16:40;;;;;;;3.70;1.30;;;;;;;2.46;100.00;101202.75;7393287;19;20447;-37
2023/04/26 00:19:10;;;;;;;7.37;1.70;;;;;;;2.36;100.00;101215.50;7393293;19;20442;-39
2023/04/26 00:21:40;;;;;;;13.73;2.37;;;;;;;2.34;100.00;101219.56;7393494;19;20415;-37
2023/04/26 00:24:10;;;;;;;7.03;1.50;;;;;;;2.40;100.00;101225.16;7392776;19;20423;-37
2023/04/26 00:26:40;;;;;;;8.03;1.50;;;;;;;2.35;100.00;101224.81;7392693;19;20779;-37
2023/04/26 00:29:13;;;;;;;6.33;1.40;;;;;;;2.38;100.00;101219.97;7394170;19;21097;-36
2023/04/26 00:31:42;;;;;;;9.73;2.07;;;;;;;2.45;100.00;101226.44;7393461;19;20419;-40
2023/04/26 00:34:12;;;;;;;9.20;1.03;;;;;;;2.39;100.00;101221.75;7393177;19;20411;-38
2023/04/26 00:36:41;;;;;;;6.50;1.60;;;;;;;2.45;100.00;101221.34;7394252;19;20796;-37
2023/04/26 00:39:11;;;;;;;5.70;1.33;;;;;;;2.44;100.00;101224.66;7394838;19;20381;-36
2023/04/26 00:41:41;;;;;;;7.50;2.00;;;;;;;2.45;100.00;101225.56;7392840;19;20966;-37
2023/04/26 00:44:13;;;;;;;9.30;1.30;;;;;;;2.41;100.00;101221.88;7392338;19;20410;-36
2023/04/26 00:46:43;;;;;;;6.07;1.17;;;;;;;2.44;100.00;101224.66;7392533;19;21003;-38
2023/04/26 00:49:14;;;;;;;5.97;1.90;;;;;;;2.36;100.00;101226.56;7391789;19;20380;-37
2023/04/26 00:51:44;;;;;;;7.40;1.30;;;;;;;2.38;100.00;101219.06;7393087;19;20962;-37
2023/04/26 00:54:14;;;;;;;7.17;1.40;;;;;;;2.45;100.00;101217.94;7390137;19;20436;-36
2023/04/26 00:56:44;;;;;;;6.47;1.30;;;;;;;2.45;100.00;101221.34;7393920;19;20416;-36
2023/04/26 00:59:16;;;;;;;6.60;1.70;;;;;;;2.50;100.00;101227.72;7391232;19;20739;-36
2023/04/26 01:01:47;;;;;;;2.80;1.07;;;;;;;2.49;100.00;101225.94;7390999;19;20388;-38
2023/04/26 01:04:17;;;;;;;7.07;1.53;;;;;;;2.44;100.00;101232.31;7386935;19;20412;-36
2023/04/26 01:06:48;;;;;;;4.43;1.20;;;;;;;2.40;100.00;101235.34;7391394;19;20381;-36
2023/04/26 01:09:19;;;;;;;4.83;1.27;;;;;;;2.41;100.00;101234.63;7387683;19;20931;-36
2023/04/26 01:11:49;;;;;;;10.10;1.70;;;;;;;2.31;100.00;101224.44;7390689;19;20395;-36
2023/04/26 01:14:22;;;;;;;4.40;1.10;;;;;;;2.25;100.00;101230.78;7390674;19;20421;-36
2023/04/26 01:16:52;;;;;;;14.43;1.80;;;;;;;2.23;100.00;101219.59;7390347;19;20377;-36
2023/04/26 01:19:22;;;;;;;7.90;1.10;;;;;;;2.22;100.00;101225.47;7389259;19;20391;-37
2023/04/26 01:21:51;;;;;;;6.03;2.10;;;;;;;2.22;100.00;101228.00;7390464;19;20392;-36
2023/04/26 01:24:24;;;;;;;7.63;1.23;;;;;;;2.22;100.00;101228.00;7388563;19;20418;-36
2023/04/26 01:26:54;;;;;;;2.43;0.90;;;;;;;2.14;100.00;101222.25;7393530;19;20383;-36
2023/04/26 01:29:26;;;;;;;10.47;1.60;;;;;;;2.11;100.00;101218.56;7388401;19;20428;-37
2023/04/26 01:31:55;;;;;;;7.30;1.17;;;;;;;2.08;100.00;101213.22;7389850;19;20408;-36
2023/04/26 01:34:25;;;;;;;7.50;1.73;;;;;;;2.06;100.00;101215.66;7388092;19;20420;-39
2023/04/26 01:36:55;;;;;;;12.13;1.97;;;;;;;2.05;100.00;101212.97;7392186;19;20403;-37
2023/04/26 01:39:27;;;;;;;12.40;1.70;;;;;;;1.95;100.00;101209.63;7389475;19;20465;-36
2023/04/26 01:41:59;;;;;;;11.00;1.33;;;;;;;1.92;100.00;101203.41;7390064;19;20420;-37
2023/04/26 01:44:28;;;;;;;11.97;1.40;;;;;;;1.88;100.00;101202.25;7388458;19;20410;-36
2023/04/26 01:46:58;;;;;;;10.63;1.67;;;;;;;1.89;100.00;101202.41;7390403;19;20395;-36
2023/04/26 01:49:28;;;;;;;6.93;2.00;;;;;;;1.89;100.00;101188.75;7387751;19;20386;-37
2023/04/26 01:51:57;;;;;;;11.63;1.97;;;;;;;1.92;100.00;101185.59;7392370;19;21196;-37
2023/04/26 01:54:30;;;;;;;5.53;1.80;;;;;;;1.93;100.00;101173.00;7387436;19;20443;-36
2023/04/26 01:56:59;;;;;;;9.20;3.20;;;;;;;1.97;100.00;101175.03;7390984;19;20395;-36
2023/04/26 01:59:29;;;;;;;2.47;0.87;;;;;;;1.95;100.00;101176.56;7387283;19;20486;-37
2023/04/26 02:01:58;;;;;;;12.23;2.43;;;;;;;1.96;100.00;101168.19;7391316;19;20451;-37
2023/04/26 02:04:28;;;;;;;6.13;1.73;;;;;;;1.93;100.00;101167.91;7387803;19;20424;-38
2023/04/26 02:06:58;;;;;;;10.90;2.40;;;;;;;1.98;100.00;101176.81;7389757;19;20395;-36
2023/04/26 02:09:31;;;;;;;8.27;1.90;;;;;;;1.99;100.00;101193.88;7387367;19;20392;-38
2023/04/26 02:12:00;;;;;;;12.87;2.20;;;;;;;2.04;100.00;101185.75;7389573;19;20738;-36
2023/04/26 02:14:30;;;;;;;6.93;1.70;;;;;;;2.03;100.00;101184.84;7387140;19;20434;-36
2023/04/26 02:17:00;;;;;;;6.20;1.70;;;;;;;1.97;100.00;101159.78;7396059;19;20397;-35
2023/04/26 02:19:31;;;;;;;11.97;1.10;;;;;;;1.92;100.00;101161.03;7393705;19;20395;-36
2023/04/26 02:22:01;;;;;;;5.63;1.83;;;;;;;2.00;100.00;101154.91;7394919;19;20927;-36
2023/04/26 02:24:33;;;;;;;8.67;1.97;;;;;;;1.98;100.00;101148.81;7391038;19;20433;-37
2023/04/26 02:27:04;;;;;;;5.80;1.30;;;;;;;1.79;100.00;101138.75;7396070;19;20375;-37
2023/04/26 02:29:35;;;;;;;12.03;1.70;;;;;;;1.82;100.00;101133.03;7393381;19;20414;-37
2023/04/26 02:32:13;;;;;;;11.47;1.43;;;;;;;1.71;100.00;101127.06;7395028;19;20925;-38
2023/04/26 02:34:43;;;;;;;16.73;2.30;;;;;;;1.77;100.00;101127.56;7393031;19;20403;-37
2023/04/26 02:37:12;;;;;;;7.93;2.07;;;;;;;1.78;100.00;101115.75;7398384;19;20436;-37
2023/04/26 02:39:44;;;;;;;3.57;1.67;;;;;;;1.68;100.00;101114.97;7393552;19;20399;-36
2023/04/26 02:42:14;;;;;;;12.73;3.20;;;;;;;1.72;100.00;101108.47;7395441;19;20379;-36
2023/04/26 02:44:43;;;;;;;9.40;2.07;;;;;;;1.71;100.00;101102.53;7391516;19;20436;-36
2023/04/26 02:47:13;;;;;;;10.73;2.50;;;;;;;1.68;100.00;101093.72;7397245;19;20431;-37
2023/04/26 02:49:43;;;;;;;7.60;2.20;;;;;;;1.59;100.00;101083.69;7393097;19;20428;-36
2023/04/26 02:52:13;;;;;;;8.60;2.27;;;;;;;1.65;100.00;101078.22;7396911;19;20386;-37
2023/04/26 02:54:45;;;;;;;8.80;2.53;;;;;;;1.68;100.00;101071.72;7392022;19;20427;-38
2023/04/26 02:57:15;;;;;;;7.40;2.50;;;;;;;1.64;100.00;101076.44;7394973;19;20790;-37
2023/04/26 02:59:47;;;;;;;10.83;2.70;;;;;;;1.58;100.00;101066.63;7396965;19;20398;-37
2023/04/26 03:02:16;;;;;;;6.80;2.10;;;;;;;1.59;100.00;101071.84;7397725;19;20375;-39
2023/04/26 03:04:46;;;;;;;7.43;2.53;;;;;;;1.61;100.00;101056.72;7391946;19;20392;-39
2023/04/26 03:07:16;;;;;;;9.20;3.10;;;;;;;1.58;100.00;101071.72;7395291;19;20384;-38
2023/04/26 03:09:48;;;;;;;4.47;2.10;;;;;;;1.68;100.00;101071.72;7391676;19;20792;-36
2023/04/26 03:12:18;;;;;;;9.50;2.80;;;;;;;1.71;100.00;101077.06;7394402;19;20371;-38
2023/04/26 03:14:47;;;;;;;17.10;2.30;;;;;;;1.71;100.00;101078.72;7389425;19;20459;-36
2023/04/26 03:17:17;;;;;;;8.27;2.30;;;;;;;1.62;100.00;101063.56;7393780;19;20384;-38
2023/04/26 03:19:46;;;;;;;7.37;2.30;;;;;;;1.69;100.00;101059.91;7391037;19;20395;-36
2023/04/26 03:22:17;;;;;;;4.47;1.97;;;;;;;1.66;100.00;101052.91;7395589;19;20411;-37
2023/04/26 03:24:50;;;;;;;15.20;2.00;;;;;;;1.61;100.00;101057.63;7395354;19;20414;-36
2023/04/26 03:27:20;;;;;;;14.47;3.20;;;;;;;1.60;100.00;101055.81;7393417;19;20404;-41
2023/04/26 03:29:49;;;;;;;12.70;3.20;;;;;;;1.64;100.00;101049.31;7390500;19;20826;-36
2023/04/26 03:32:19;;;;;;;12.03;3.10;;;;;;;1.64;100.00;101046.78;7393214;19;20395;-37
2023/04/26 03:34:49;;;;;;;9.57;2.73;;;;;;;1.69;100.00;101042.97;7392473;19;20975;-37
2023/04/26 03:37:18;;;;;;;11.50;3.03;;;;;;;1.81;100.00;101029.47;7394668;19;20388;-38
2023/04/26 03:39:52;;;;;;;11.73;3.40;;;;;;;1.83;100.00;101027.94;7392126;19;20406;-36
2023/04/26 03:42:22;;;;;;;13.13;3.10;;;;;;;1.78;100.00;101024.16;7395967;19;20363;-37
2023/04/26 03:44:51;;;;;;;12.47;4.10;;;;;;;1.74;100.00;101028.97;7391859;19;20398;-38
2023/04/26 03:47:21;;;;;;;14.07;4.20;;;;;;;1.78;100.00;101022.47;7394115;19;20396;-38
2023/04/26 03:49:51;;;;;;;13.93;3.10;;;;;;;1.67;100.00;101025.78;7396171;19;20471;-36
2023/04/26 03:52:21;;;;;;;11.60;3.60;;;;;;;1.64;100.00;101025.56;7394351;19;20424;-36
2023/04/26 03:54:53;;;;;;;13.13;3.60;;;;;;;1.57;100.00;101025.06;7391150;19;20387;-37
2023/04/26 03:57:22;;;;;;;10.07;4.10;;;;;;;1.75;100.00;101023.13;7395560;19;20390;-37
2023/04/26 03:59:52;;;;;;;14.87;3.60;;;;;;;1.65;100.00;101022.25;7384739;19;20399;-38
2023/04/26 04:02:22;;;;;;;7.80;3.13;;;;;;;1.67;100.00;101026.69;7392241;19;20379;-37
2023/04/26 04:04:52;;;;;;;11.73;3.50;;;;;;;1.54;100.00;101023.91;7390511;19;20403;-37
2023/04/26 04:07:22;;;;;;;8.67;2.93;;;;;;;1.51;100.00;101029.63;7392451;19;20384;-38
2023/04/26 04:09:54;;;;;;;8.17;3.27;;;;;;;1.66;100.00;101044.38;7390813;19;20402;-38
2023/04/26 04:12:24;;;;;;;7.87;3.40;;;;;;;1.65;100.00;101043.50;7392689;19;20371;-38
2023/04/26 04:14:54;;;;;;;12.50;3.17;;;;;;;1.63;100.00;101042.47;7390291;19;20432;-38
2023/04/26 04:17:23;;;;;;;11.33;2.80;;;;;;;1.68;100.00;101043.72;7393093;19;20367;-38
2023/04/26 04:19:53;;;;;;;9.20;2.70;;;;;;;1.62;100.00;101045.78;7389269;19;20487;-36
2023/04/26 04:22:22;;;;;;;5.27;2.60;;;;;;;1.56;100.00;101047.81;7391637;19;20384;-39
2023/04/26 04:24:54;;;;;;;7.10;1.97;;;;;;;1.63;100.00;101050.09;7389226;19;20772;-36
2023/04/26 04:27:24;;;;;;;11.63;3.20;;;;;;;1.64;100.00;101041.69;7392129;19;20505;-38
2023/04/26 04:29:54;;;;;;;15.63;3.27;;;;;;;1.65;100.00;101045.13;7389498;19;20892;-38
2023/04/26 04:32:24;;;;;;;15.67;3.30;;;;;;;1.63;100.00;101044.13;7393058;19;20383;-36
2023/04/26 04:34:53;;;;;;;4.07;2.40;;;;;;;1.62;100.00;101053.41;7390296;19;20436;-37
2023/04/26 04:37:24;;;;;;;10.23;3.07;;;;;;;1.56;100.00;101056.34;7392636;19;20378;-36
2023/04/26 04:39:56;;;;;;;5.73;2.80;;;;;;;1.65;100.00;101062.94;7389464;19;20403;-37
2023/04/26 04:42:27;;;;;;;17.60;4.13;;;;;;;1.67;100.00;101069.94;7390966;19;20424;-38
2023/04/26 04:44:58;;;;;;;31.93;7.57;;;;;;;1.74;100.00;101067.13;7386892;19;20922;-38
2023/04/26 04:47:27;;;;;;;28.20;6.30;;;;;;;1.76;100.00;101077.44;7392228;19;20416;-37
2023/04/26 04:49:57;;;;;;;13.20;2.80;;;;;;;1.72;100.00;101073.75;7389437;19;20403;-37
2023/04/26 04:52:27;;;;;;;13.40;5.00;;;;;;;1.78;100.00;101072.50;7395448;19;20403;-38
2023/04/26 04:54:59;;;;;;;15.67;3.80;;;;;;;1.78;100.00;101073.38;7390214;19;20804;-37
2023/04/26 04:57:29;;;;;;;16.17;2.67;;;;;;;1.83;100.00;101066.09;7396106;19;20388;-36
2023/04/26 05:00:05;;;;;;;10.17;3.13;;;;;;;1.83;100.00;101066.09;7388929;19;20418;-38
2023/04/26 05:02:35;;;;;;;11.40;2.80;;;;;;;1.79;100.00;101059.88;7392080;19;20709;-37
2023/04/26 05:05:06;;;;;;;6.13;3.00;;;;;;;1.83;100.00;101058.47;7388691;19;20455;-37
2023/04/26 05:07:36;;;;;;;9.00;2.70;;;;;;;1.84;100.00;101055.19;7391345;19;20388;-36
2023/04/26 05:10:09;;;;;;;6.23;2.97;;;;;;;1.85;100.00;101059.50;7388596;19;20426;-37
2023/04/26 05:12:39;;;;;;;8.33;2.93;;;;;;;1.84;100.00;101060.28;7386011;19;20990;-36
2023/04/26 05:15:09;;;;;;;9.43;3.27;;;;;;;1.86;100.00;101063.81;7390964;19;21074;-38
2023/04/26 05:17:39;;;;;;;5.80;3.10;;;;;;;1.93;100.00;101055.91;7394953;19;20483;-38
2023/04/26 05:20:13;;;;;;;13.07;2.90;;;;;;;1.92;100.00;101059.25;7390502;19;20649;-39
2023/04/26 05:22:43;;;;;;;16.60;3.27;;;;;;;1.89;100.00;101066.59;7395727;19;20408;-37
2023/04/26 05:25:16;;;;;;;6.60;2.60;;;;;;;1.89;100.00;101061.50;7390956;19;20422;-37
2023/04/26 05:27:46;;;;;;;7.90;2.80;;;;;;;1.97;100.00;101070.69;7395321;19;20432;-39
2023/04/26 05:30:16;;;;;;;11.20;3.40;;;;;;;1.91;100.00;101071.81;7388843;19;20409;-38
2023/04/26 05:32:45;;;;;;;11.17;3.30;;;;;;;1.98;100.00;101077.56;7392133;19;20742;-37
2023/04/26 05:35:15;;;;;;;14.43;3.80;;;;;;;1.99;100.00;101080.97;7387462;19;20435;-37
2023/04/26 05:37:45;;;;;;;17.20;3.10;;;;;;;2.03;100.00;101083.00;7390892;19;20747;-37
2023/04/26 05:40:17;;;;;;;9.03;2.70;;;;;;;2.15;100.00;101078.00;7388989;19;20962;-38
2023/04/26 05:42:47;;;;;;;5.90;2.60;;;;;;;2.26;100.00;101097.59;7390331;19;20406;-38
2023/04/26 05:45:17;;;;;;;7.37;2.83;;;;;;;2.35;100.00;101091.50;7386968;19;20423;-37
2023/04/26 05:47:47;;;;;;;10.37;3.47;;;;;;;2.44;100.00;101092.22;7392521;19;20725;-38
2023/04/26 05:50:17;;;;;;;7.23;2.50;;;;;;;2.37;100.00;101089.94;7386816;19;20439;-38
2023/04/26 05:52:46;;;;;;;5.60;2.50;;;;;;;2.23;100.00;101087.19;7390561;19;20770;-37
2023/04/26 05:55:19;;;;;;;14.33;3.23;;;;;;;2.36;100.00;101090.72;7386462;19;20783;-38
2023/04/26 05:57:48;;;;;;;13.83;4.20;;;;;;;2.46;100.00;101100.84;7390084;19;20403;-38
2023/04/26 06:00:21;;;;;;;10.30;2.57;;;;;;;2.44;100.00;101107.50;7385150;19;20781;-36
2023/04/26 06:02:51;;;;;;;11.50;4.30;;;;;;;2.51;100.00;101107.22;7391159;19;20865;-38
2023/04/26 06:05:21;;;;;;;10.50;3.77;;;;;;;2.58;100.00;101106.06;7387703;19;20415;-38
2023/04/26 06:07:52;;;;;;;11.40;4.57;;;;;;;2.65;100.00;101121.06;7390033;19;20438;-37
2023/04/26 06:10:25;;;;;;;10.90;4.07;;;;;;;2.70;100.00;101121.41;7386342;19;20451;-36
2023/04/26 06:12:55;;;;;;;16.97;3.00;;;;;;;2.67;100.00;101126.28;7389832;19;20391;-37
2023/04/26 06:15:26;;;;;;;8.53;3.90;;;;;;;2.64;100.00;101136.22;7386256;19;20969;-37
2023/04/26 06:17:56;;;;;;;7.40;3.77;;;;;;;2.66;100.00;101137.25;7391634;19;21088;-37
2023/04/26 06:20:26;;;;;;;8.30;3.40;;;;;;;2.68;100.00;101151.00;7386593;19;20439;-38
2023/04/26 06:22:56;;;;;;;20.63;4.43;;;;;;;2.67;100.00;101155.19;7388333;19;21197;-39
2023/04/26 06:25:28;;;;;;;11.77;3.43;;;;;;;2.88;100.00;101154.25;7386469;19;20415;-38
2023/04/26 06:27:57;;;;;;;9.23;3.80;;;;;;;3.01;100.00;101159.53;7388801;19;20467;-38
2023/04/26 06:30:27;;;;;;;9.27;3.87;;;;;;;3.14;100.00;101155.41;7383524;19;20418;-38
2023/04/26 06:32:58;;;;;;;11.10;3.30;;;;;;;3.28;100.00;101174.34;7388101;19;20399;-37
2023/04/26 06:35:28;;;;;;;10.37;3.87;;;;;;;3.37;100.00;101173.38;7385075;19;20419;-38
2023/04/26 06:38:00;;;;;;;8.43;3.03;;;;;;;3.28;100.00;101175.22;7389337;19;20435;-36
2023/04/26 06:40:33;;;;;;;8.83;3.10;;;;;;;3.27;100.00;101198.06;7385061;19;20619;-37
2023/04/26 06:43:03;;;;;;;6.50;2.53;;;;;;;3.30;100.00;101194.09;7388173;19;20387;-37
2023/04/26 06:45:32;;;;;;;9.93;3.30;;;;;;;3.47;100.00;101202.16;7383685;19;20411;-39
2023/04/26 06:48:03;;;;;;;15.40;3.63;;;;;;;3.63;100.00;101200.03;7394338;19;20941;-39
2023/04/26 06:50:33;;;;;;;16.00;4.30;;;;;;;3.67;100.00;101200.25;7385249;19;20411;-36
2023/04/26 06:53:03;;;;;;;12.37;3.53;;;;;;;3.84;100.00;101204.09;7387748;19;20743;-38
2023/04/26 06:55:35;;;;;;;7.50;2.20;;;;;;;3.81;100.00;101214.97;7387888;19;20949;-37
2023/04/26 06:58:05;;;;;;;14.03;3.77;;;;;;;3.92;100.00;101209.03;7388388;19;20392;-37
2023/04/26 07:00:34;;;;;;;9.33;3.50;;;;;;;4.11;100.00;101223.16;7387920;19;20431;-37
2023/04/26 07:03:04;;;;;;;13.07;4.53;;;;;;;4.14;100.00;101231.06;7397171;19;20390;-36
2023/04/26 07:05:34;;;;;;;14.00;3.73;;;;;;;4.26;100.00;101237.88;7390976;19;20432;-37
2023/04/26 07:08:03;;;;;;;11.27;3.37;;;;;;;4.23;100.00;101245.28;7394253;19;20894;-38
2023/04/26 07:10:36;;;;;;;15.20;3.63;;;;;;;4.45;100.00;101240.13;7386771;19;20427;-38
2023/04/26 07:13:06;;;;;;;14.77;4.23;;;;;;;4.49;100.00;101254.91;7393707;19;20408;-36
2023/04/26 07:15:38;;;;;;;6.43;3.13;;;;;;;4.54;100.00;101262.94;7389331;19;20535;-38
2023/04/26 07:18:07;;;;;;;6.30;2.83;;;;;;;4.50;100.00;101276.28;7392971;19;20391;-36
2023/04/26 07:20:37;;;;;;;9.63;2.90;;;;;;;4.67;100.00;101286.06;7392584;19;20451;-36
2023/04/26 07:23:06;;;;;;;20.67;4.10;;;;;;;4.72;100.00;101301.75;7394446;19;20399;-38
2023/04/26 07:25:38;;;;;;;29.77;7.53;;;;;;;4.87;100.00;101309.66;7388073;19;20411;-36
2023/04/26 07:28:08;;;;;;;42.00;8.10;;;;;;;4.97;100.00;101317.22;7397698;19;20440;-37
2023/04/26 07:30:37;;;;;;;34.40;8.20;;;;;;;4.94;100.00;101319.59;7393605;19;20448;-36
2023/04/26 07:33:07;;;;;;;7.97;2.00;;;;;;;4.75;100.00;101329.19;7396531;19;20425;-37
2023/04/26 07:35:37;;;;;;;7.50;3.10;;;;;;;4.95;100.00;101338.34;7396113;19;20455;-37
2023/04/26 07:38:07;;;;;;;6.50;2.70;;;;;;;5.23;100.00;101341.28;7396967;19;20408;-36
2023/04/26 07:40:42;;;;;;;8.37;2.63;;;;;;;5.36;100.00;101348.19;7393031;19;20471;-36
2023/04/26 07:43:12;;;;;;;72.83;15.37;;;;;;;5.56;100.00;101347.81;7398806;19;20420;-38
2023/04/26 07:45:41;;;;;;;10.50;2.93;;;;;;;5.73;100.00;101356.69;7396882;19;20772;-42
2023/04/26 07:48:11;;;;;;;20.73;5.80;;;;;;;5.51;100.00;101368.88;7397857;19;20414;-42
2023/04/26 07:50:41;;;;;;;10.40;2.57;;;;;;;5.46;100.00;101383.00;7395708;19;20476;-39
2023/04/26 07:53:10;;;;;;;10.37;3.10;;;;;;;5.49;100.00;101375.53;7398750;19;20442;-39
2023/04/26 07:55:42;;;;;;;8.67;2.27;;;;;;;5.30;100.00;101395.44;7395541;19;20443;-43
2023/04/26 07:58:13;;;;;;;16.70;5.53;;;;;;;4.97;100.00;101405.88;7397222;19;20416;-37
2023/04/26 08:00:43;;;;;;;11.23;2.17;;;;;;;4.48;100.00;101390.25;7395909;19;20443;-41
2023/04/26 08:03:13;;;;;;;16.40;2.30;;;;;;;4.41;100.00;101378.69;7397523;19;20845;-38
2023/04/26 08:05:43;;;;;;;6.03;2.57;;;;;;;4.43;100.00;101367.81;7396403;19;20447;-38
2023/04/26 08:08:14;;;;;;;7.60;2.30;;;;;;;4.63;100.00;101365.88;7396728;19;20432;-38
2023/04/26 08:10:49;;;;;;;10.83;3.20;;;;;;;4.64;100.00;101359.97;7394288;19;20457;-46
2023/04/26 08:13:20;;;;;;;7.13;1.80;;;;;;;4.64;100.00;101362.53;7396967;19;20407;-39
2023/04/26 08:15:50;;;;;;;5.53;1.20;;;;;;;4.55;100.00;101357.63;7393828;19;20443;-43
2023/04/26 08:18:19;;;;;;;9.27;2.00;;;;;;;4.67;100.00;101372.09;7396420;19;20440;-44
2023/04/26 08:20:49;;;;;;;5.87;2.57;;;;;;;4.77;100.00;101378.81;7392506;19;20794;-44
2023/04/26 08:23:18;;;;;;;17.53;5.23;;;;;;;4.83;100.00;101372.47;7395507;19;20947;-43
2023/04/26 08:25:51;;;;;;;11.17;1.80;;;;;;;5.01;100.00;101364.38;7395066;19;20431;-45
2023/04/26 08:28:20;;;;;;;3.63;1.30;;;;;;;5.14;100.00;101377.31;7395570;19;20412;-43
2023/04/26 08:30:50;;;;;;;2.30;1.10;;;;;;;5.24;100.00;101378.88;7390351;19;20839;-41
2023/04/26 08:33:19;;;;;;;4.97;1.50;;;;;;;5.41;100.00;101384.34;7395433;19;20411;-42
2023/04/26 08:35:49;;;;;;;15.23;3.43;;;;;;;5.54;100.00;101394.69;7394605;19;20471;-41
2023/04/26 08:38:21;;;;;;;7.00;1.83;;;;;;;5.75;100.00;101398.69;7395498;19;20760;-40
2023/04/26 08:40:53;;;;;;;6.40;1.10;;;;;;;5.86;100.00;101399.44;7392586;19;20431;-37
2023/04/26 08:43:23;;;;;;;12.33;1.60;;;;;;;6.16;100.00;101402.44;7396189;19;20415;-40
2023/04/26 08:45:54;;;;;;;5.70;1.60;;;;;;;6.15;100.00;101416.03;7393065;19;20447;-41
2023/04/26 08:48:24;;;;;;;4.90;1.57;;;;;;;6.50;100.00;101420.13;7399239;19;20478;-38
2023/04/26 08:50:54;;;;;;;9.87;2.23;;;;;;;6.39;100.00;101427.09;7393559;19;20451;-38
2023/04/26 08:53:23;;;;;;;10.27;1.80;;;;;;;6.70;100.00;101423.19;7396700;19;20407;-45
2023/04/26 08:55:56;;;;;;;4.50;1.47;;;;;;;6.89;100.00;101426.19;7394650;19;20451;-38
2023/04/26 08:58:25;;;;;;;6.93;1.70;;;;;;;6.53;100.00;101434.84;7399139;19;20518;-37
2023/04/26 09:00:55;;;;;;;10.97;3.00;;;;;;;6.05;100.00;101423.06;7392410;19;20829;-38
2023/04/26 09:03:25;;;;;;;3.03;1.20;;;;;;;5.85;100.00;101420.72;7397809;19;20415;-41
2023/04/26 09:05:55;;;;;;;6.90;2.00;;;;;;;5.79;100.00;101432.31;7391772;19;20784;-37
2023/04/26 09:08:26;;;;;;;6.60;1.53;;;;;;;5.81;100.00;101451.22;7396374;19;20419;-41
2023/04/26 09:10:59;;;;;;;5.57;1.50;;;;;;;5.72;100.00;101457.34;7392744;19;20467;-40
2023/04/26 09:13:31;;;;;;;12.33;2.33;;;;;;;5.56;100.00;101457.91;7396792;19;20439;-46
2023/04/26 09:16:02;;;;;;;6.77;2.47;;;;;;;5.51;100.00;101458.47;7392371;19;20823;-39
2023/04/26 09:18:33;;;;;;;11.47;2.17;;;;;;;5.53;100.00;101453.44;7396202;19;20419;-37
2023/04/26 09:21:05;;;;;;;8.80;1.90;;;;;;;5.66;100.00;101455.25;7393362;19;20444;-37
2023/04/26 09:23:35;;;;;;;10.30;2.20;;;;;;;5.80;100.00;101454.56;7398241;19;20435;-37
2023/04/26 09:26:21;;;;;;;30.20;4.77;;;;;;;6.08;100.00;101451.47;7393181;19;20435;-37
2023/04/26 09:28:51;;;;;;;13.50;3.17;;;;;;;6.43;100.00;101459.88;7396665;19;20403;-39
2023/04/26 09:31:39;;;;;;;11.17;2.70;;;;;;;6.80;100.00;101453.81;7393261;19;20676;-39
2023/04/26 09:34:08;;;;;;;17.50;2.63;;;;;;;7.03;100.00;101462.19;7395669;19;20508;-40
2023/04/26 09:36:56;;;;;;;12.33;2.40;;;;;;;7.12;100.00;101464.47;7397299;19;20448;-42
2023/04/26 09:39:38;;;;;;;6.13;1.70;;;;;;;7.24;100.00;101479.81;7392131;19;20415;-46
2023/04/26 09:42:11;;;;;;;7.50;1.70;;;;;;;7.27;100.00;101493.75;7394424;19;20427;-37
2023/04/26 09:44:41;;;;;;;17.30;4.50;;;;;;;7.43;100.00;101493.09;7391796;19;20399;-41
2023/04/26 09:47:11;;;;;;;7.50;1.77;;;;;;;7.70;100.00;101493.09;7393626;19;20399;-38
2023/04/26 09:49:50;;;;;;;10.37;1.53;;;;;;;7.54;100.00;101521.16;7392881;19;20430;-39
2023/04/26 09:52:20;;;;;;;11.40;2.23;;;;;;;7.64;100.00;101495.28;7394633;19;20770;-38
2023/04/26 09:54:52;;;;;;;7.53;1.87;;;;;;;7.75;100.00;101501.09;7392431;19;20992;-38
2023/04/26 09:57:24;;;;;;;7.70;2.13;;;;;;;7.76;100.00;101478.88;7395341;19;20801;-38
2023/04/26 09:59:55;;;;;;;3.83;1.20;;;;;;;7.38;100.00;101483.31;7390148;19;20990;-40
2023/04/26 10:02:26;;;;;;;4.60;1.10;;;;;;;7.48;100.00;101459.13;7393515;19;20411;-38
2023/04/26 10:04:58;;;;;;;8.40;1.27;;;;;;;7.66;100.00;101439.78;7390540;19;20447;-38
2023/04/26 10:07:28;;;;;;;1.90;0.60;;;;;;;7.74;100.00;101431.66;7393883;19;20431;-40
2023/04/26 10:09:59;;;;;;;12.73;2.17;;;;;;;7.70;100.00;101436.59;7390847;19;20447;-38
2023/04/26 10:12:31;;;;;;;9.70;1.50;;;;;;;7.90;100.00;101464.38;7393352;19;20407;-38
2023/04/26 10:15:00;;;;;;;5.30;1.50;;;;;;;8.02;100.00;101474.53;7389762;19;20435;-38
2023/04/26 10:17:31;;;;;;;8.93;0.93;;;;;;;7.74;100.00;101473.66;7392993;19;20415;-40
2023/04/26 10:20:02;;;;;;;4.30;1.03;;;;;;;7.65;100.00;101471.38;7390851;19;20439;-38
2023/04/26 10:22:36;;;;;;;6.40;1.70;;;;;;;7.89;100.00;101484.03;7393199;19;20411;-43
2023/04/26 10:25:06;;;;;;;5.43;1.40;;;;;;;8.40;100.00;101491.47;7390126;19;20439;-38
2023/04/26 10:27:53;;;;;;;5.23;1.20;;;;;;;8.38;100.00;101480.22;7393806;19;20622;-40
2023/04/26 10:30:27;;;;;;;4.20;1.30;;;;;;;8.43;100.00;101473.69;7389944;19;20423;-42
2023/04/26 10:33:18;;;;;;;6.60;1.40;;;;;;;8.58;100.00;101473.78;7392478;19;20420;-41
2023/04/26 10:36:04;;;;;;;5.90;1.60;;;;;;;7.89;100.00;101490.88;7390979;19;20439;-38
2023/04/26 10:38:34;;;;;;;4.10;1.10;;;;;;;7.54;100.00;101491.22;7403072;19;20410;-38
2023/04/26 10:41:32;;;;;;;5.67;1.40;;;;;;;7.46;100.00;101506.91;7396801;19;20455;-38
2023/04/26 10:44:46;;;;;;;5.70;1.33;;;;;;;7.80;100.00;101512.56;7400342;19;20979;-38
2023/04/26 10:47:27;;;;;;;5.20;1.67;;;;;;;8.08;100.00;101519.53;7402034;19;20459;-39
2023/04/26 10:50:06;;;;;;;5.67;1.53;;;;;;;8.21;100.00;101523.75;7397537;19;20445;-40
2023/04/26 10:52:36;;;;;;;5.60;1.20;;;;;;;7.47;100.00;101468.50;7398603;19;20399;-38
2023/04/26 10:55:07;;;;;;;5.03;1.00;;;;;;;7.20;100.00;101478.72;7395676;19;20439;-38
2023/04/26 10:57:52;;;;;;;3.70;1.30;;;;;;;7.10;100.00;101517.38;7399012;19;20431;-39
2023/04/26 11:00:34;;;;;;;5.60;1.10;;;;;;;7.02;100.00;101519.41;7393780;19;20430;-40
2023/04/26 11:03:08;;;;;;;10.03;1.37;;;;;;;7.04;100.00;101528.13;7397882;19;20407;-38
2023/04/26 11:05:55;;;;;;;14.13;1.60;;;;;;;6.99;100.00;101534.59;7396990;19;20442;-42
2023/04/26 11:08:30;;;;;;;5.00;1.10;;;;;;;6.99;100.00;101532.91;7402106;19;20415;-43
2023/04/26 11:11:09;;;;;;;5.10;1.50;;;;;;;7.11;100.00;101519.16;7376500;19;20982;-43
2023/04/26 11:13:40;;;;;;;3.60;1.10;;;;;;;7.32;100.00;101499.16;7402393;19;20427;-40
2023/04/26 11:16:13;;;;;;;8.00;1.37;;;;;;;7.64;100.00;101518.41;7400448;19;20498;-45
2023/04/26 11:18:43;;;;;;;4.93;1.30;;;;;;;7.68;100.00;101504.97;7404113;19;20411;-37
2023/04/26 11:21:16;;;;;;;3.27;1.00;;;;;;;7.69;100.00;101496.47;7398989;19;20449;-38
2023/04/26 11:23:55;;;;;;;5.37;1.20;;;;;;;7.88;100.00;101474.53;7400551;19;20495;-38
2023/04/26 11:26:24;;;;;;;4.37;1.10;;;;;;;7.88;100.00;101468.50;7398257;19;20439;-41
2023/04/26 11:28:55;;;;;;;5.73;1.20;;;;;;;8.14;100.00;101469.31;7399458;19;20396;-41
2023/04/26 11:31:28;;;;;;;7.07;1.40;;;;;;;8.15;100.00;101460.78;7397210;19;20471;-37
2023/04/26 11:34:05;;;;;;;4.77;0.90;;;;;;;8.26;100.00;101453.75;7399234;19;20447;-44
2023/04/26 11:36:34;;;;;;;2.97;1.33;;;;;;;8.10;100.00;101407.41;7398090;19;20427;-37
2023/04/26 11:39:05;;;;;;;8.50;1.30;;;;;;;8.28;100.00;101447.00;7398865;19;20441;-38
2023/04/26 11:41:35;;;;;;;3.37;1.23;;;;;;;8.44;100.00;101467.75;7395445;19;20471;-38